Wetterdaten: Woche 08.08.11 - 14.08.11 (KW32)
Datum Zeit Temp. Innen Temp. Aussen UV X Diff Temp. Feuchte Inne Feuchte Auss Sonnenschein Luftdruck Regen ab 0,1 Wind Sonnenschein T Regendauer Windben
08.08.2011 00:00 22,7 C 16,4 C 0,0 UV-I 0,0 C 51 % 71 % 0 % 1004,2 hPa 0,0 l/m 2,1 km/h (1 Bft) 0,00 h 0,00 h 5,3 km/h (1 Bft)
08.08.2011 01:00 22,5 C 16,1 C 0,0 UV-I 0,0 C 51 % 71 % 0 % 1003,7 hPa 0,0 l/m 2,8 km/h (1 Bft) 0,00 h 0,00 h 5,2 km/h (1 Bft)
08.08.2011 02:00 22,4 C 15,6 C 0,0 UV-I 0,0 C 51 % 73 % 0 % 1003,3 hPa 0,0 l/m 2,4 km/h (1 Bft) 0,00 h 0,00 h 4,0 km/h (1 Bft)
08.08.2011 03:00 22,2 C 15,7 C 0,0 UV-I 0,0 C 51 % 73 % 0 % 1002,4 hPa 0,0 l/m 2,0 km/h (1 Bft) 0,00 h 0,17 h 5,1 km/h (1 Bft)
08.08.2011 04:00 21,9 C 14,5 C 0,0 UV-I 0,0 C 54 % 81 % 0 % 1002,7 hPa 2,3 l/m 4,6 km/h (1 Bft) 0,00 h 0,43 h 8,5 km/h (2 Bft)
08.08.2011 05:00 21,6 C 13,2 C 0,0 UV-I 0,0 C 57 % 87 % 0 % 1001,7 hPa 0,1 l/m 0,6 km/h (0 Bft) 0,00 h 0,00 h 1,6 km/h (1 Bft)
08.08.2011 06:00 21,6 C 12,9 C 0,0 UV-I 0,0 C 58 % 89 % 0 % 1001,5 hPa 0,0 l/m 3,1 km/h (1 Bft) 0,00 h 0,00 h 5,0 km/h (1 Bft)
08.08.2011 07:00 21,8 C 13,2 C 0,0 UV-I 0,0 C 58 % 90 % 0 % 1001,3 hPa 0,0 l/m 3,5 km/h (1 Bft) 0,00 h 0,00 h 6,9 km/h (2 Bft)
08.08.2011 08:00 21,8 C 13,5 C 0,1 UV-I 0,2 C 57 % 89 % 5 % 1001,6 hPa 0,0 l/m 5,0 km/h (1 Bft) 0,00 h 0,00 h 8,9 km/h (2 Bft)
08.08.2011 09:00 21,9 C 14,4 C 0,6 UV-I 0,9 C 56 % 86 % 26 % 1001,9 hPa 0,0 l/m 6,9 km/h (2 Bft) 0,00 h 0,00 h 10,9 km/h (2 Bft)
08.08.2011 10:00 21,6 C 16,0 C 3,0 UV-I 3,6 C 55 % 79 % 81 % 1001,9 hPa 0,0 l/m 8,5 km/h (2 Bft) 0,57 h 0,00 h 11,8 km/h (2 Bft)
08.08.2011 11:00 21,5 C 16,6 C 1,7 UV-I 1,8 C 54 % 71 % 50 % 1002,0 hPa 0,0 l/m 9,5 km/h (2 Bft) 0,10 h 0,10 h 12,4 km/h (3 Bft)
08.08.2011 12:00 21,6 C 16,9 C 1,6 UV-I 2,3 C 53 % 70 % 64 % 1002,5 hPa 0,0 l/m 8,8 km/h (2 Bft) 0,20 h 0,03 h 15,0 km/h (3 Bft)
08.08.2011 13:00 21,6 C 16,5 C 2,5 UV-I 2,4 C 54 % 75 % 68 % 1003,6 hPa 0,0 l/m 11,0 km/h (2 Bft) 0,37 h 0,07 h 17,5 km/h (3 Bft)
08.08.2011 14:00 22,1 C 17,5 C 3,4 UV-I 3,7 C 55 % 73 % 93 % 1004,6 hPa 0,0 l/m 10,7 km/h (2 Bft) 0,90 h 0,00 h 15,1 km/h (3 Bft)
08.08.2011 15:00 22,9 C 19,2 C 5,9 UV-I 4,8 C 52 % 66 % 100 % 1005,7 hPa 0,0 l/m 11,4 km/h (2 Bft) 1,00 h 0,00 h 16,1 km/h (3 Bft)
08.08.2011 16:00 23,8 C 19,9 C 6,5 UV-I 4,7 C 49 % 61 % 100 % 1006,9 hPa 0,0 l/m 9,8 km/h (2 Bft) 1,00 h 0,00 h 13,6 km/h (3 Bft)
08.08.2011 17:00 24,0 C 19,3 C 1,7 UV-I 2,2 C 49 % 64 % 62 % 1007,4 hPa 0,1 l/m 8,7 km/h (2 Bft) 0,13 h 0,13 h 11,6 km/h (2 Bft)
08.08.2011 18:00 23,8 C 19,2 C 1,0 UV-I 2,0 C 48 % 61 % 55 % 1007,9 hPa 0,0 l/m 8,9 km/h (2 Bft) 0,37 h 0,00 h 11,6 km/h (2 Bft)
08.08.2011 19:00 23,2 C 18,6 C 0,1 UV-I 0,1 C 49 % 62 % 2 % 1008,4 hPa 0,0 l/m 7,4 km/h (2 Bft) 0,00 h 0,00 h 9,5 km/h (2 Bft)
08.08.2011 20:00 22,7 C 17,7 C 0,0 UV-I 0,0 C 48 % 62 % 0 % 1009,0 hPa 0,0 l/m 6,9 km/h (2 Bft) 0,00 h 0,00 h 9,9 km/h (2 Bft)
08.08.2011 21:00 22,1 C 16,1 C 0,0 UV-I 0,0 C 49 % 69 % 0 % 1009,6 hPa 0,0 l/m 5,0 km/h (1 Bft) 0,00 h 0,00 h 6,6 km/h (2 Bft)
08.08.2011 22:00 21,6 C 15,0 C 0,0 UV-I 0,0 C 51 % 75 % 0 % 1010,0 hPa 0,0 l/m 5,3 km/h (1 Bft) 0,00 h 0,00 h 7,4 km/h (2 Bft)
08.08.2011 23:00 21,3 C 15,2 C 0,0 UV-I 0,0 C 52 % 76 % 0 % 1010,2 hPa 0,0 l/m 7,0 km/h (2 Bft) 0,00 h 0,00 h 9,0 km/h (2 Bft)
09.08.2011 00:00 21,1 C 15,5 C 0,0 UV-I 0,0 C 54 % 77 % 0 % 1010,3 hPa 0,0 l/m 6,8 km/h (2 Bft) 0,00 h 0,00 h 9,3 km/h (2 Bft)
09.08.2011 01:00 21,0 C 15,7 C 0,0 UV-I 0,0 C 55 % 77 % 0 % 1010,6 hPa 0,0 l/m 7,5 km/h (2 Bft) 0,00 h 0,00 h 10,0 km/h (2 Bft)
09.08.2011 02:00 20,9 C 15,6 C 0,0 UV-I 0,0 C 56 % 78 % 0 % 1010,6 hPa 0,0 l/m 7,4 km/h (2 Bft) 0,00 h 0,03 h 10,5 km/h (2 Bft)
09.08.2011 03:00 20,8 C 15,1 C 0,0 UV-I 0,0 C 57 % 82 % 0 % 1010,9 hPa 0,6 l/m 4,1 km/h (1 Bft) 0,00 h 0,73 h 7,0 km/h (2 Bft)
09.08.2011 04:00 20,8 C 14,5 C 0,0 UV-I 0,0 C 59 % 86 % 0 % 1011,4 hPa 0,4 l/m 2,5 km/h (1 Bft) 0,00 h 0,37 h 5,3 km/h (1 Bft)
09.08.2011 05:00 20,8 C 14,4 C 0,0 UV-I 0,0 C 60 % 88 % 0 % 1011,7 hPa 0,1 l/m 4,7 km/h (1 Bft) 0,00 h 0,23 h 8,0 km/h (2 Bft)
09.08.2011 06:00 20,6 C 14,1 C 0,0 UV-I 0,0 C 60 % 89 % 0 % 1011,7 hPa 0,4 l/m 4,5 km/h (1 Bft) 0,00 h 0,40 h 7,3 km/h (2 Bft)
09.08.2011 07:00 20,4 C 13,7 C 0,0 UV-I 0,0 C 61 % 90 % 0 % 1012,3 hPa 1,0 l/m 4,4 km/h (1 Bft) 0,00 h 0,63 h 7,0 km/h (2 Bft)
09.08.2011 08:00 20,5 C 13,9 C 0,3 UV-I 0,2 C 62 % 91 % 6 % 1012,8 hPa 0,0 l/m 4,6 km/h (1 Bft) 0,00 h 0,13 h 7,5 km/h (2 Bft)
09.08.2011 09:00 20,9 C 15,0 C 2,1 UV-I 3,1 C 61 % 89 % 77 % 1013,7 hPa 0,0 l/m 6,2 km/h (2 Bft) 0,47 h 0,00 h 10,6 km/h (2 Bft)
09.08.2011 10:00 21,3 C 15,8 C 2,1 UV-I 3,1 C 60 % 82 % 75 % 1014,7 hPa 2,5 l/m 6,5 km/h (2 Bft) 0,63 h 0,30 h 12,5 km/h (3 Bft)
09.08.2011 11:00 21,2 C 14,4 C 2,4 UV-I 2,1 C 59 % 86 % 48 % 1015,5 hPa 0,1 l/m 4,6 km/h (1 Bft) 0,40 h 0,23 h 7,6 km/h (2 Bft)
09.08.2011 12:00 21,5 C 17,0 C 3,4 UV-I 5,6 C 58 % 76 % 100 % 1016,0 hPa 0,0 l/m 8,7 km/h (2 Bft) 1,00 h 0,00 h 10,4 km/h (2 Bft)
09.08.2011 13:00 21,8 C 17,9 C 2,6 UV-I 3,3 C 55 % 67 % 84 % 1016,5 hPa 0,1 l/m 8,3 km/h (2 Bft) 0,60 h 0,13 h 12,9 km/h (3 Bft)
09.08.2011 14:00 22,1 C 17,3 C 3,2 UV-I 2,5 C 54 % 68 % 68 % 1017,3 hPa 0,0 l/m 9,2 km/h (2 Bft) 0,43 h 0,17 h 13,9 km/h (3 Bft)
09.08.2011 15:00 22,3 C 17,4 C 2,1 UV-I 2,2 C 52 % 65 % 61 % 1018,2 hPa 0,0 l/m 8,6 km/h (2 Bft) 0,30 h 0,00 h 12,6 km/h (3 Bft)
09.08.2011 16:00 22,6 C 18,1 C 3,9 UV-I 3,7 C 50 % 60 % 96 % 1019,0 hPa 0,0 l/m 9,8 km/h (2 Bft) 0,93 h 0,00 h 12,9 km/h (3 Bft)
09.08.2011 17:00 22,9 C 17,1 C 1,6 UV-I 1,2 C 49 % 64 % 34 % 1019,7 hPa 0,0 l/m 8,8 km/h (2 Bft) 0,10 h 0,00 h 12,9 km/h (3 Bft)
09.08.2011 18:00 22,8 C 16,6 C 0,9 UV-I 1,0 C 50 % 65 % 28 % 1020,2 hPa 0,0 l/m 7,7 km/h (2 Bft) 0,00 h 0,00 h 11,1 km/h (2 Bft)
09.08.2011 19:00 22,4 C 16,3 C 0,2 UV-I 0,1 C 49 % 65 % 2 % 1020,6 hPa 0,0 l/m 6,5 km/h (2 Bft) 0,00 h 0,00 h 11,8 km/h (2 Bft)
09.08.2011 20:00 21,9 C 15,1 C 0,0 UV-I 0,0 C 50 % 71 % 0 % 1021,2 hPa 0,0 l/m 6,6 km/h (2 Bft) 0,00 h 0,17 h 8,7 km/h (2 Bft)
09.08.2011 21:00 21,5 C 13,9 C 0,0 UV-I 0,0 C 51 % 77 % 0 % 1022,1 hPa 0,0 l/m 5,4 km/h (1 Bft) 0,00 h 0,00 h 7,5 km/h (2 Bft)
09.08.2011 22:00 21,1 C 12,9 C 0,0 UV-I 0,0 C 52 % 80 % 0 % 1022,7 hPa 0,0 l/m 3,7 km/h (1 Bft) 0,00 h 0,00 h 6,6 km/h (2 Bft)
09.08.2011 23:00 20,8 C 12,1 C 0,0 UV-I 0,0 C 52 % 82 % 0 % 1023,0 hPa 0,0 l/m 2,1 km/h (1 Bft) 0,00 h 0,00 h 4,8 km/h (1 Bft)
10.08.2011 00:00 20,6 C 11,9 C 0,0 UV-I 0,0 C 53 % 84 % 0 % 1023,6 hPa 0,0 l/m 2,4 km/h (1 Bft) 0,00 h 0,00 h 4,5 km/h (1 Bft)
10.08.2011 01:00 20,4 C 12,3 C 0,0 UV-I 0,0 C 54 % 84 % 0 % 1023,7 hPa 0,0 l/m 1,6 km/h (1 Bft) 0,00 h 0,00 h 2,9 km/h (1 Bft)
10.08.2011 02:00 20,4 C 12,1 C 0,0 UV-I 0,0 C 54 % 84 % 0 % 1024,0 hPa 0,0 l/m 0,7 km/h (0 Bft) 0,00 h 0,00 h 1,6 km/h (1 Bft)
10.08.2011 03:00 20,3 C 11,3 C 0,0 UV-I 0,0 C 54 % 85 % 0 % 1024,1 hPa 0,0 l/m 0,9 km/h (0 Bft) 0,00 h 0,00 h 1,3 km/h (1 Bft)
10.08.2011 04:00 20,1 C 10,4 C 0,0 UV-I 0,0 C 53 % 86 % 0 % 1024,4 hPa 0,0 l/m 0,5 km/h (0 Bft) 0,00 h 0,00 h 1,9 km/h (1 Bft)
10.08.2011 05:00 19,8 C 9,7 C 0,0 UV-I 0,0 C 54 % 88 % 0 % 1024,5 hPa 0,0 l/m 0,0 km/h (0 Bft) 0,00 h 0,00 h 0,0 km/h (0 Bft)
10.08.2011 06:00 19,6 C 9,3 C 0,0 UV-I 0,0 C 54 % 89 % 0 % 1024,5 hPa 0,0 l/m 0,2 km/h (0 Bft) 0,00 h 0,00 h 1,2 km/h (1 Bft)
10.08.2011 07:00 19,5 C 10,1 C 0,0 UV-I 0,0 C 54 % 89 % 0 % 1024,6 hPa 0,0 l/m 1,0 km/h (0 Bft) 0,00 h 0,00 h 2,8 km/h (1 Bft)
10.08.2011 08:00 19,5 C 11,8 C 0,0 UV-I 2,4 C 54 % 88 % 45 % 1024,8 hPa 0,0 l/m 1,2 km/h (1 Bft) 0,40 h 0,00 h 2,6 km/h (1 Bft)
10.08.2011 09:00 19,6 C 14,6 C 0,0 UV-I 7,4 C 54 % 81 % 100 % 1024,7 hPa 0,0 l/m 2,2 km/h (1 Bft) 1,00 h 0,00 h 4,0 km/h (1 Bft)
10.08.2011 10:00 19,9 C 16,8 C 0,0 UV-I 7,8 C 53 % 69 % 100 % 1024,5 hPa 0,0 l/m 3,0 km/h (1 Bft) 1,00 h 0,00 h 4,6 km/h (1 Bft)
10.08.2011 11:00 20,2 C 18,1 C 3,3 UV-I 7,1 C 52 % 61 % 100 % 1024,1 hPa 0,0 l/m 4,4 km/h (1 Bft) 1,00 h 0,00 h 6,3 km/h (2 Bft)
10.08.2011 12:00 20,6 C 19,7 C 2,4 UV-I 5,8 C 52 % 58 % 100 % 1023,5 hPa 0,0 l/m 5,2 km/h (1 Bft) 1,00 h 0,00 h 7,5 km/h (2 Bft)
10.08.2011 13:00 21,2 C 20,7 C 2,3 UV-I 5,0 C 51 % 54 % 100 % 1022,7 hPa 0,0 l/m 7,6 km/h (2 Bft) 1,00 h 0,00 h 7,1 km/h (2 Bft)
10.08.2011 14:00 22,1 C 21,5 C 2,3 UV-I 4,9 C 49 % 51 % 100 % 1022,2 hPa 0,0 l/m 7,3 km/h (2 Bft) 1,00 h 0,00 h 7,8 km/h (2 Bft)
10.08.2011 15:00 22,6 C 21,3 C 2,0 UV-I 3,4 C 47 % 49 % 91 % 1021,5 hPa 0,0 l/m 8,1 km/h (2 Bft) 0,73 h 0,00 h 7,5 km/h (2 Bft)
10.08.2011 16:00 23,1 C 21,8 C 2,5 UV-I 2,1 C 46 % 47 % 60 % 1021,1 hPa 0,0 l/m 0,9 km/h (0 Bft) 0,00 h 0,00 h 0,0 km/h (0 Bft)
10.08.2011 17:00 23,5 C 21,7 C 1,8 UV-I 2,6 C 45 % 47 % 74 % 1020,4 hPa 0,0 l/m 5,6 km/h (1 Bft) 0,30 h 0,00 h 6,1 km/h (2 Bft)
10.08.2011 18:00 23,3 C 21,4 C 0,6 UV-I 1,3 C 44 % 48 % 36 % 1019,3 hPa 0,0 l/m 9,1 km/h (2 Bft) 0,00 h 0,00 h 12,0 km/h (2 Bft)
10.08.2011 19:00 22,9 C 20,8 C 0,1 UV-I 0,1 C 45 % 50 % 4 % 1018,4 hPa 0,0 l/m 6,6 km/h (2 Bft) 0,00 h 0,00 h 8,9 km/h (2 Bft)
10.08.2011 20:00 22,6 C 20,3 C 0,0 UV-I 0,0 C 46 % 52 % 0 % 1017,6 hPa 0,0 l/m 5,9 km/h (2 Bft) 0,00 h 0,00 h 6,8 km/h (2 Bft)
10.08.2011 21:00 22,3 C 20,0 C 0,0 UV-I 0,0 C 47 % 53 % 0 % 1017,1 hPa 0,0 l/m 5,1 km/h (1 Bft) 0,00 h 0,00 h 7,2 km/h (2 Bft)
10.08.2011 22:00 22,1 C 19,8 C 0,0 UV-I 0,0 C 47 % 54 % 0 % 1016,7 hPa 0,0 l/m 6,4 km/h (2 Bft) 0,00 h 0,00 h 6,8 km/h (2 Bft)
10.08.2011 23:00 22,0 C 19,4 C 0,0 UV-I 0,0 C 47 % 55 % 0 % 1016,3 hPa 0,0 l/m 8,5 km/h (2 Bft) 0,00 h 0,00 h 9,4 km/h (2 Bft)
11.08.2011 00:00 21,8 C 19,0 C 0,0 UV-I 0,0 C 48 % 57 % 0 % 1015,7 hPa 0,0 l/m 6,7 km/h (2 Bft) 0,00 h 0,00 h 9,5 km/h (2 Bft)
11.08.2011 01:00 21,6 C 18,8 C 0,0 UV-I 0,0 C 49 % 59 % 0 % 1015,2 hPa 0,0 l/m 8,4 km/h (2 Bft) 0,00 h 0,00 h 9,9 km/h (2 Bft)
11.08.2011 02:00 21,5 C 18,5 C 0,0 UV-I 0,0 C 50 % 61 % 0 % 1014,7 hPa 0,0 l/m 8,9 km/h (2 Bft) 0,00 h 0,00 h 9,5 km/h (2 Bft)
11.08.2011 03:00 21,4 C 18,1 C 0,0 UV-I 0,0 C 50 % 60 % 0 % 1014,1 hPa 0,0 l/m 8,5 km/h (2 Bft) 0,00 h 0,00 h 9,5 km/h (2 Bft)
11.08.2011 04:00 21,2 C 17,6 C 0,0 UV-I 0,0 C 49 % 59 % 0 % 1013,7 hPa 0,0 l/m 6,6 km/h (2 Bft) 0,00 h 0,00 h 7,4 km/h (2 Bft)
11.08.2011 05:00 21,1 C 17,2 C 0,0 UV-I 0,0 C 48 % 59 % 0 % 1013,0 hPa 0,0 l/m 7,1 km/h (2 Bft) 0,00 h 0,00 h 7,8 km/h (2 Bft)
11.08.2011 06:00 21,0 C 16,8 C 0,0 UV-I 0,0 C 47 % 58 % 0 % 1012,9 hPa 0,0 l/m 5,8 km/h (2 Bft) 0,00 h 0,00 h 5,5 km/h (1 Bft)
11.08.2011 07:00 20,9 C 16,5 C 0,1 UV-I 0,0 C 47 % 60 % 0 % 1012,9 hPa 0,0 l/m 5,1 km/h (1 Bft) 0,00 h 0,00 h 6,9 km/h (2 Bft)
11.08.2011 08:00 20,9 C 17,2 C 0,4 UV-I 0,8 C 48 % 61 % 22 % 1012,8 hPa 0,0 l/m 5,7 km/h (1 Bft) 0,00 h 0,00 h 6,5 km/h (2 Bft)
11.08.2011 09:00 21,0 C 18,1 C 0,8 UV-I 1,6 C 48 % 58 % 46 % 1012,6 hPa 0,0 l/m 8,0 km/h (2 Bft) 0,00 h 0,00 h 8,7 km/h (2 Bft)
11.08.2011 10:00 21,2 C 19,3 C 2,4 UV-I 3,0 C 48 % 55 % 78 % 1012,5 hPa 0,0 l/m 8,5 km/h (2 Bft) 0,47 h 0,00 h 9,6 km/h (2 Bft)
11.08.2011 11:00 21,4 C 21,2 C 2,9 UV-I 4,1 C 47 % 46 % 97 % 1012,3 hPa 0,0 l/m 8,7 km/h (2 Bft) 0,93 h 0,00 h 9,2 km/h (2 Bft)
11.08.2011 12:00 21,9 C 22,3 C 1,8 UV-I 2,8 C 45 % 42 % 81 % 1011,9 hPa 0,0 l/m 8,3 km/h (2 Bft) 0,43 h 0,00 h 10,9 km/h (2 Bft)
11.08.2011 13:00 22,4 C 23,3 C 1,8 UV-I 2,6 C 44 % 41 % 75 % 1011,9 hPa 0,0 l/m 9,3 km/h (2 Bft) 0,13 h 0,00 h 10,0 km/h (2 Bft)
11.08.2011 14:00 22,9 C 23,6 C 1,6 UV-I 2,2 C 45 % 45 % 64 % 1011,7 hPa 0,0 l/m 8,1 km/h (2 Bft) 0,00 h 0,00 h 8,6 km/h (2 Bft)
11.08.2011 15:00 23,6 C 24,8 C 3,2 UV-I 3,5 C 45 % 42 % 90 % 1011,5 hPa 0,0 l/m 9,2 km/h (2 Bft) 0,67 h 0,00 h 10,7 km/h (2 Bft)
11.08.2011 16:00 24,7 C 25,7 C 3,1 UV-I 3,3 C 42 % 37 % 88 % 1011,6 hPa 0,0 l/m 10,3 km/h (2 Bft) 0,73 h 0,00 h 12,0 km/h (2 Bft)
11.08.2011 17:00 25,1 C 26,0 C 2,4 UV-I 3,3 C 41 % 37 % 87 % 1011,0 hPa 0,0 l/m 8,9 km/h (2 Bft) 0,73 h 0,00 h 10,4 km/h (2 Bft)
11.08.2011 18:00 25,1 C 25,4 C 0,7 UV-I 1,3 C 40 % 36 % 37 % 1010,3 hPa 0,0 l/m 7,6 km/h (2 Bft) 0,07 h 0,00 h 9,4 km/h (2 Bft)
11.08.2011 19:00 24,6 C 24,2 C 0,1 UV-I 0,0 C 40 % 39 % 0 % 1010,1 hPa 0,0 l/m 4,8 km/h (1 Bft) 0,00 h 0,00 h 5,2 km/h (1 Bft)
11.08.2011 20:00 24,2 C 23,4 C 0,0 UV-I 0,0 C 41 % 41 % 0 % 1010,0 hPa 0,0 l/m 4,7 km/h (1 Bft) 0,00 h 0,00 h 7,3 km/h (2 Bft)
11.08.2011 21:00 23,9 C 22,6 C 0,0 UV-I 0,0 C 42 % 43 % 0 % 1009,9 hPa 0,0 l/m 4,0 km/h (1 Bft) 0,00 h 0,00 h 5,0 km/h (1 Bft)
11.08.2011 22:00 23,7 C 21,2 C 0,0 UV-I 0,0 C 44 % 53 % 0 % 1010,2 hPa 0,7 l/m 4,6 km/h (1 Bft) 0,00 h 0,20 h 6,8 km/h (2 Bft)
11.08.2011 23:00 23,2 C 17,1 C 0,0 UV-I 0,0 C 52 % 80 % 0 % 1010,9 hPa 0,4 l/m 5,7 km/h (1 Bft) 0,00 h 0,17 h 6,3 km/h (2 Bft)
12.08.2011 00:00 22,7 C 16,8 C 0,0 UV-I 0,0 C 57 % 87 % 0 % 1010,4 hPa 0,4 l/m 6,4 km/h (2 Bft) 0,00 h 0,43 h 7,9 km/h (2 Bft)
12.08.2011 01:00 22,4 C 16,6 C 0,0 UV-I 0,0 C 60 % 89 % 0 % 1010,1 hPa 0,0 l/m 3,4 km/h (1 Bft) 0,00 h 0,17 h 3,2 km/h (1 Bft)
12.08.2011 02:00 22,2 C 16,7 C 0,0 UV-I 0,0 C 61 % 90 % 0 % 1009,7 hPa 0,0 l/m 2,6 km/h (1 Bft) 0,00 h 0,00 h 3,9 km/h (1 Bft)
12.08.2011 03:00 22,2 C 17,0 C 0,0 UV-I 0,0 C 62 % 90 % 0 % 1009,3 hPa 0,0 l/m 3,8 km/h (1 Bft) 0,00 h 0,00 h 3,3 km/h (1 Bft)
12.08.2011 04:00 22,0 C 17,2 C 0,0 UV-I 0,0 C 63 % 89 % 0 % 1009,0 hPa 0,0 l/m 3,1 km/h (1 Bft) 0,00 h 0,00 h 4,0 km/h (1 Bft)
12.08.2011 05:00 22,0 C 17,1 C 0,0 UV-I 0,0 C 64 % 90 % 0 % 1008,9 hPa 0,0 l/m 2,7 km/h (1 Bft) 0,00 h 0,00 h 3,3 km/h (1 Bft)
12.08.2011 06:00 22,0 C 17,1 C 0,0 UV-I 0,0 C 64 % 90 % 0 % 1009,1 hPa 0,0 l/m 2,6 km/h (1 Bft) 0,00 h 0,00 h 5,3 km/h (1 Bft)
12.08.2011 07:00 21,9 C 17,1 C 0,0 UV-I 0,0 C 65 % 90 % 0 % 1009,1 hPa 0,0 l/m 3,1 km/h (1 Bft) 0,00 h 0,00 h 3,6 km/h (1 Bft)
12.08.2011 08:00 21,9 C 17,3 C 0,0 UV-I 0,1 C 65 % 90 % 3 % 1009,3 hPa 0,0 l/m 3,3 km/h (1 Bft) 0,00 h 0,00 h 4,8 km/h (1 Bft)
12.08.2011 09:00 22,0 C 18,1 C 0,5 UV-I 1,4 C 65 % 88 % 39 % 1009,5 hPa 0,0 l/m 4,5 km/h (1 Bft) 0,00 h 0,00 h 5,4 km/h (1 Bft)
12.08.2011 10:00 22,2 C 19,1 C 0,7 UV-I 2,5 C 64 % 82 % 71 % 1009,8 hPa 0,0 l/m 6,3 km/h (2 Bft) 0,33 h 0,00 h 8,6 km/h (2 Bft)
12.08.2011 11:00 22,3 C 19,5 C 0,8 UV-I 2,0 C 63 % 81 % 57 % 1009,9 hPa 0,0 l/m 4,6 km/h (1 Bft) 0,27 h 0,00 h 3,8 km/h (1 Bft)
12.08.2011 12:00 22,5 C 20,0 C 1,4 UV-I 2,8 C 63 % 80 % 79 % 1010,1 hPa 0,0 l/m 5,2 km/h (1 Bft) 0,57 h 0,00 h 5,4 km/h (1 Bft)
12.08.2011 13:00 22,7 C 19,3 C 1,1 UV-I 1,0 C 64 % 84 % 28 % 1010,3 hPa 0,1 l/m 4,1 km/h (1 Bft) 0,00 h 0,17 h 5,0 km/h (1 Bft)
12.08.2011 14:00 23,0 C 20,4 C 1,9 UV-I 3,7 C 65 % 82 % 95 % 1010,0 hPa 0,0 l/m 4,1 km/h (1 Bft) 0,90 h 0,00 h 5,6 km/h (1 Bft)
12.08.2011 15:00 23,4 C 21,3 C 1,4 UV-I 2,5 C 64 % 79 % 71 % 1009,9 hPa 0,1 l/m 2,6 km/h (1 Bft) 0,23 h 0,27 h 2,7 km/h (1 Bft)
12.08.2011 16:00 23,5 C 21,3 C 1,2 UV-I 1,9 C 62 % 75 % 54 % 1009,9 hPa 0,0 l/m 4,7 km/h (1 Bft) 0,00 h 0,00 h 6,1 km/h (2 Bft)
12.08.2011 17:00 23,8 C 21,6 C 1,6 UV-I 2,5 C 62 % 74 % 69 % 1009,9 hPa 0,0 l/m 6,6 km/h (2 Bft) 0,40 h 0,00 h 6,5 km/h (2 Bft)
12.08.2011 18:00 24,0 C 21,2 C 0,3 UV-I 0,9 C 60 % 74 % 25 % 1010,2 hPa 0,0 l/m 4,6 km/h (1 Bft) 0,00 h 0,00 h 7,2 km/h (2 Bft)
12.08.2011 19:00 23,7 C 20,6 C 0,0 UV-I 0,2 C 61 % 76 % 5 % 1010,1 hPa 0,1 l/m 2,1 km/h (1 Bft) 0,00 h 0,07 h 2,6 km/h (1 Bft)
12.08.2011 20:00 23,5 C 19,4 C 0,0 UV-I 0,0 C 62 % 82 % 0 % 1010,3 hPa 0,5 l/m 0,2 km/h (0 Bft) 0,00 h 0,33 h 0,1 km/h (0 Bft)
12.08.2011 21:00 23,2 C 18,5 C 0,0 UV-I 0,0 C 65 % 86 % 0 % 1010,5 hPa 0,0 l/m 0,0 km/h (0 Bft) 0,00 h 0,00 h 0,0 km/h (0 Bft)
12.08.2011 22:00 23,0 C 18,2 C 0,0 UV-I 0,0 C 65 % 88 % 0 % 1010,7 hPa 0,0 l/m 0,7 km/h (0 Bft) 0,00 h 0,00 h 1,0 km/h (0 Bft)
12.08.2011 23:00 22,9 C 18,0 C 0,0 UV-I 0,0 C 65 % 89 % 0 % 1010,7 hPa 0,0 l/m 0,0 km/h (0 Bft) 0,00 h 0,00 h 0,0 km/h (0 Bft)
13.08.2011 00:00 22,8 C 17,5 C 0,0 UV-I 0,0 C 66 % 89 % 0 % 1011,0 hPa 1,4 l/m 0,7 km/h (0 Bft) 0,00 h 0,57 h 1,3 km/h (1 Bft)
13.08.2011 01:00 22,7 C 17,0 C 0,0 UV-I 0,0 C 66 % 91 % 0 % 1011,2 hPa 0,1 l/m 0,0 km/h (0 Bft) 0,00 h 0,03 h 0,0 km/h (0 Bft)
13.08.2011 02:00 22,6 C 16,8 C 0,0 UV-I 0,0 C 66 % 92 % 0 % 1011,0 hPa 0,1 l/m 0,0 km/h (0 Bft) 0,00 h 0,20 h 0,0 km/h (0 Bft)
13.08.2011 03:00 22,5 C 16,9 C 0,0 UV-I 0,0 C 67 % 92 % 0 % 1010,3 hPa 0,4 l/m 0,1 km/h (0 Bft) 0,00 h 1,00 h 0,2 km/h (0 Bft)
13.08.2011 04:00 22,4 C 16,7 C 0,0 UV-I 0,0 C 67 % 92 % 0 % 1010,2 hPa 0,0 l/m 0,0 km/h (0 Bft) 0,00 h 0,03 h 0,0 km/h (0 Bft)
13.08.2011 05:00 22,4 C 16,7 C 0,0 UV-I 0,0 C 67 % 93 % 0 % 1010,0 hPa 0,2 l/m 0,0 km/h (0 Bft) 0,00 h 0,23 h 0,0 km/h (0 Bft)
13.08.2011 06:00 22,3 C 16,6 C 0,0 UV-I 0,0 C 68 % 93 % 0 % 1009,9 hPa 0,1 l/m 0,1 km/h (0 Bft) 0,00 h 0,33 h 0,1 km/h (0 Bft)
13.08.2011 07:00 22,3 C 16,7 C 0,0 UV-I 0,0 C 68 % 93 % 0 % 1009,9 hPa 0,0 l/m 0,5 km/h (0 Bft) 0,00 h 0,00 h 1,7 km/h (1 Bft)
13.08.2011 08:00 22,2 C 16,9 C 0,2 UV-I 0,5 C 67 % 93 % 13 % 1009,8 hPa 0,0 l/m 1,1 km/h (1 Bft) 0,00 h 0,00 h 1,9 km/h (1 Bft)
13.08.2011 09:00 22,2 C 17,6 C 0,8 UV-I 1,5 C 67 % 92 % 44 % 1009,7 hPa 0,0 l/m 1,9 km/h (1 Bft) 0,00 h 0,00 h 3,3 km/h (1 Bft)
13.08.2011 10:00 22,3 C 18,1 C 1,0 UV-I 1,2 C 66 % 90 % 34 % 1009,7 hPa 0,0 l/m 2,9 km/h (1 Bft) 0,00 h 0,03 h 3,4 km/h (1 Bft)
13.08.2011 11:00 22,5 C 18,7 C 1,8 UV-I 3,1 C 67 % 90 % 77 % 1009,6 hPa 0,0 l/m 1,2 km/h (1 Bft) 0,60 h 0,07 h 1,8 km/h (1 Bft)
13.08.2011 12:00 22,8 C 21,1 C 2,4 UV-I 6,3 C 66 % 81 % 100 % 1009,2 hPa 0,0 l/m 3,6 km/h (1 Bft) 1,00 h 0,00 h 5,0 km/h (1 Bft)
13.08.2011 13:00 23,3 C 22,7 C 2,3 UV-I 4,9 C 63 % 68 % 99 % 1009,0 hPa 0,0 l/m 5,4 km/h (1 Bft) 1,00 h 0,00 h 6,4 km/h (2 Bft)
13.08.2011 14:00 23,6 C 22,2 C 1,1 UV-I 2,1 C 61 % 68 % 61 % 1008,8 hPa 0,0 l/m 2,6 km/h (1 Bft) 0,07 h 0,00 h 3,0 km/h (1 Bft)
13.08.2011 15:00 23,7 C 22,3 C 0,8 UV-I 1,9 C 60 % 68 % 53 % 1008,8 hPa 0,0 l/m 3,5 km/h (1 Bft) 0,27 h 0,03 h 5,6 km/h (1 Bft)
13.08.2011 16:00 23,6 C 20,9 C 0,3 UV-I 0,0 C 61 % 74 % 1 % 1008,8 hPa 1,4 l/m 0,4 km/h (0 Bft) 0,00 h 0,83 h 0,5 km/h (0 Bft)
13.08.2011 17:00 23,6 C 19,9 C 0,4 UV-I 0,0 C 64 % 83 % 0 % 1008,9 hPa 0,1 l/m 0,3 km/h (0 Bft) 0,00 h 0,10 h 0,3 km/h (0 Bft)
13.08.2011 18:00 23,6 C 19,4 C 0,1 UV-I 0,0 C 66 % 86 % 0 % 1008,4 hPa 0,0 l/m 1,5 km/h (1 Bft) 0,00 h 0,00 h 1,6 km/h (1 Bft)
13.08.2011 19:00 23,4 C 19,2 C 0,0 UV-I 0,0 C 67 % 88 % 0 % 1008,3 hPa 0,0 l/m 2,3 km/h (1 Bft) 0,00 h 0,00 h 3,1 km/h (1 Bft)
13.08.2011 20:00 23,2 C 18,9 C 0,0 UV-I 0,0 C 68 % 89 % 0 % 1008,1 hPa 2,5 l/m 2,0 km/h (1 Bft) 0,00 h 0,60 h 2,3 km/h (1 Bft)
13.08.2011 21:00 23,1 C 18,6 C 0,0 UV-I 0,0 C 69 % 91 % 0 % 1008,1 hPa 0,4 l/m 0,2 km/h (0 Bft) 0,00 h 0,27 h 0,1 km/h (0 Bft)
13.08.2011 22:00 23,0 C 18,5 C 0,0 UV-I 0,0 C 70 % 92 % 0 % 1008,0 hPa 0,0 l/m 0,7 km/h (0 Bft) 0,00 h 0,00 h 0,8 km/h (0 Bft)
13.08.2011 23:00 22,9 C 18,3 C 0,0 UV-I 0,0 C 70 % 92 % 0 % 1008,0 hPa 0,0 l/m 0,1 km/h (0 Bft) 0,00 h 0,00 h 0,0 km/h (0 Bft)
14.08.2011 00:00 22,8 C 18,0 C 0,0 UV-I 0,0 C 70 % 93 % 0 % 1007,8 hPa 0,0 l/m 0,0 km/h (0 Bft) 0,00 h 0,00 h 0,0 km/h (0 Bft)
14.08.2011 01:00 22,7 C 17,7 C 0,0 UV-I 0,0 C 70 % 93 % 0 % 1007,7 hPa 0,0 l/m 0,3 km/h (0 Bft) 0,00 h 0,00 h 0,7 km/h (0 Bft)
14.08.2011 02:00 22,6 C 17,3 C 0,0 UV-I 0,0 C 69 % 93 % 0 % 1007,1 hPa 0,0 l/m 1,3 km/h (1 Bft) 0,00 h 0,00 h 1,9 km/h (1 Bft)
14.08.2011 03:00 22,6 C 17,3 C 0,0 UV-I 0,0 C 69 % 93 % 0 % 1006,2 hPa 0,0 l/m 0,0 km/h (0 Bft) 0,00 h 0,00 h 0,2 km/h (0 Bft)
14.08.2011 04:00 22,6 C 17,4 C 0,0 UV-I 0,0 C 69 % 94 % 0 % 1005,6 hPa 2,3 l/m 2,3 km/h (1 Bft) 0,00 h 0,23 h 4,2 km/h (1 Bft)
14.08.2011 05:00 22,5 C 17,5 C 0,0 UV-I 0,0 C 70 % 94 % 0 % 1004,9 hPa 2,4 l/m 4,9 km/h (1 Bft) 0,00 h 0,63 h 6,1 km/h (2 Bft)
14.08.2011 06:00 22,4 C 17,7 C 0,0 UV-I 0,0 C 71 % 94 % 0 % 1003,8 hPa 2,7 l/m 5,3 km/h (1 Bft) 0,00 h 0,53 h 6,5 km/h (2 Bft)
14.08.2011 07:00 22,4 C 17,7 C 0,0 UV-I 0,0 C 71 % 94 % 0 % 1003,2 hPa 2,7 l/m 5,5 km/h (1 Bft) 0,00 h 0,47 h 5,7 km/h (1 Bft)
14.08.2011 08:00 22,6 C 18,0 C 0,0 UV-I 0,0 C 70 % 94 % 0 % 1002,9 hPa 1,1 l/m 6,6 km/h (2 Bft) 0,00 h 0,43 h 8,0 km/h (2 Bft)
14.08.2011 09:00 22,7 C 18,6 C 0,2 UV-I 0,0 C 70 % 94 % 0 % 1002,9 hPa 0,7 l/m 6,4 km/h (2 Bft) 0,00 h 0,60 h 8,2 km/h (2 Bft)
14.08.2011 10:00 22,5 C 18,4 C 0,4 UV-I 0,0 C 71 % 93 % 0 % 1002,9 hPa 0,6 l/m 6,4 km/h (2 Bft) 0,00 h 0,57 h 9,2 km/h (2 Bft)
14.08.2011 11:00 22,6 C 16,9 C 0,6 UV-I 0,2 C 70 % 92 % 5 % 1004,2 hPa 0,0 l/m 6,2 km/h (2 Bft) 0,00 h 0,00 h 7,6 km/h (2 Bft)
14.08.2011 12:00 22,7 C 17,1 C 1,0 UV-I 1,0 C 69 % 92 % 29 % 1005,2 hPa 0,0 l/m 6,0 km/h (2 Bft) 0,00 h 0,00 h 6,5 km/h (2 Bft)
14.08.2011 13:00 22,8 C 17,9 C 1,5 UV-I 1,8 C 68 % 90 % 51 % 1005,9 hPa 0,0 l/m 6,0 km/h (2 Bft) 0,10 h 0,00 h 5,4 km/h (1 Bft)
14.08.2011 14:00 23,0 C 18,2 C 1,1 UV-I 1,2 C 66 % 87 % 35 % 1006,7 hPa 0,0 l/m 5,8 km/h (2 Bft) 0,03 h 0,00 h 8,7 km/h (2 Bft)
14.08.2011 15:00 22,9 C 18,9 C 1,5 UV-I 2,6 C 66 % 85 % 73 % 1007,4 hPa 0,0 l/m 5,7 km/h (1 Bft) 0,33 h 0,00 h 5,5 km/h (1 Bft)
14.08.2011 16:00 23,2 C 19,3 C 1,0 UV-I 2,1 C 65 % 83 % 60 % 1007,8 hPa 0,0 l/m 4,5 km/h (1 Bft) 0,13 h 0,00 h 4,5 km/h (1 Bft)
14.08.2011 17:00 23,9 C 20,8 C 2,1 UV-I 3,9 C 64 % 77 % 98 % 1008,1 hPa 0,0 l/m 5,3 km/h (1 Bft) 0,97 h 0,00 h 6,8 km/h (2 Bft)
14.08.2011 18:00 24,1 C 20,7 C 0,6 UV-I 1,8 C 62 % 75 % 52 % 1008,2 hPa 0,0 l/m 3,9 km/h (1 Bft) 0,30 h 0,00 h 4,9 km/h (1 Bft)
14.08.2011 19:00 23,9 C 19,9 C 0,1 UV-I 0,1 C 62 % 77 % 3 % 1008,3 hPa 0,0 l/m 1,9 km/h (1 Bft) 0,00 h 0,00 h 2,0 km/h (1 Bft)
14.08.2011 20:00 23,5 C 18,9 C 0,0 UV-I 0,0 C 63 % 80 % 0 % 1008,6 hPa 0,4 l/m 2,3 km/h (1 Bft) 0,00 h 0,37 h 2,9 km/h (1 Bft)
14.08.2011 21:00 23,2 C 16,8 C 0,0 UV-I 0,0 C 64 % 87 % 0 % 1009,2 hPa 0,6 l/m 0,7 km/h (0 Bft) 0,00 h 0,47 h 1,0 km/h (0 Bft)
14.08.2011 22:00 22,9 C 16,2 C 0,0 UV-I 0,0 C 65 % 90 % 0 % 1009,7 hPa 0,0 l/m 0,0 km/h (0 Bft) 0,00 h 0,00 h 0,1 km/h (0 Bft)
14.08.2011 23:00 22,7 C 15,6 C 0,0 UV-I 0,0 C 66 % 91 % 0 % 1009,9 hPa 0,0 l/m 0,0 km/h (0 Bft) 0,00 h 0,00 h 0,0 km/h (0 Bft)
Min-Datum _ 10.08.11 10.08.11 08.08.11 08.08.11 11.08.11 11.08.11 08.08.11 08.08.11 - 08.08.11 - - 08.08.11
_ Min-Zeit 07:28 06:04 00:00 00:00 18:54 16:26 00:00 07:24 - 05:02 - - 00:32
Minimum _ 19,4 C 9,2 C 0,0 UV-I 0,0 C 39 % 34 % 0 % 1001,1 hPa - 0,0 km/h (0 Bft) - - 0,0 km/h (0 Bft)
Max-Datum _ 11.08.11 11.08.11 08.08.11 13.08.11 14.08.11 14.08.11 08.08.11 10.08.11 14.08.11 08.08.11 08.08.11 08.08.11 08.08.11
_ Max-Zeit 17:38 17:20 15:58 12:26 06:20 04:24 10:20 07:04 07:12 13:26 10:20 03:50 12:00
Maximum _ 25,3 C 26,3 C 9,0 UV-I 8,6 C 71 % 94 % 100 % 1024,9 hPa 2,7 l/m 14,5 km/h
O-SO (3 Bft)
0,03 h 0,03 h 42,5 km/h
O-SO (6 Bft)
Durchschnitt _ 22,3 C 17,8 C 0,7 UV-I 1,1 C 57 % 76 % 27 % 1011,5 hPa #30,5 l/m 4,6 km/h (1 Bft) #28:36 h #14:54 h 6,1 km/h (2 Bft)
© 2012 W. Hausmann